Saint-Germain-De-Grantham, Canada
Current Conditions -  °F | °C
As of 9:08 PM on Saturday 20 Dec 2014 (Local Time) from CYRQ Reporting Station
Broken Clouds Broken Clouds  
Wind Chill:   Ceiling: 1400
Heat Index:   Visibility: 9mi
Dew Point: -4°   Wind: 2mph
Humidity: 85%   Direction: 350°N
Pressure: 30.36"   Gusts: NA
Location:  45.83°N, 72.57°W
Report Text: CYRQ 210208Z AUTO 35002KT 9SM BKN014 M18/M20 A3036 RMK SLP288
Loading
Personal Weather Stations






























Interactive Weather Map New forecast layout! Learn more

10-Day Weather Forecast

Advertisements
Track Severe Weather on mobile